createdAt,value
2023-08-31T00:02:23.156Z,1.10
2023-08-31T00:04:56.513Z,4.20
2023-08-31T00:07:29.239Z,1.20
2023-08-31T00:10:01.809Z,1.20
2023-08-31T00:12:34.422Z,0.70
2023-08-31T00:15:10.234Z,1.10
2023-08-31T00:17:44.051Z,1.00
2023-08-31T00:20:16.943Z,0.90
2023-08-31T00:22:49.545Z,0.90
2023-08-31T00:25:22.090Z,0.70
2023-08-31T00:27:55.988Z,1.10
2023-08-31T00:30:30.803Z,1.00
2023-08-31T00:33:03.415Z,1.20
2023-08-31T00:35:37.059Z,1.10
2023-08-31T00:38:09.737Z,1.10
2023-08-31T00:40:45.846Z,1.20
2023-08-31T00:43:19.175Z,0.90
2023-08-31T00:45:54.075Z,1.20
2023-08-31T00:48:27.687Z,0.80
2023-08-31T00:51:02.201Z,1.20
2023-08-31T00:53:36.198Z,0.50
2023-08-31T00:56:09.343Z,0.50
2023-08-31T00:58:42.046Z,0.50
2023-08-31T01:01:21.506Z,1.50
2023-08-31T01:04:07.435Z,0.70
2023-08-31T01:06:52.184Z,0.60
2023-08-31T01:09:38.062Z,0.50
2023-08-31T01:12:13.963Z,0.60
2023-08-31T01:14:50.268Z,0.50
2023-08-31T01:17:25.188Z,0.50
2023-08-31T01:19:58.994Z,0.50
2023-08-31T01:22:41.507Z,0.50
2023-08-31T01:25:14.900Z,0.70
2023-08-31T01:27:47.462Z,41.60
2023-08-31T01:30:21.860Z,30.80
2023-08-31T01:32:54.339Z,34.50
2023-08-31T01:35:28.056Z,34.90
2023-08-31T01:38:06.117Z,8.10
2023-08-31T01:40:42.500Z,1.50
2023-08-31T01:43:16.373Z,5.80
2023-08-31T01:45:50.438Z,4.50
2023-08-31T01:48:22.884Z,5.30
2023-08-31T01:50:55.308Z,2.60
2023-08-31T01:53:27.789Z,2.40
2023-08-31T01:56:00.333Z,7.70
2023-08-31T01:58:32.849Z,9.10
2023-08-31T02:01:05.237Z,5.40
2023-08-31T02:03:38.031Z,9.10
2023-08-31T02:06:10.874Z,5.90
2023-08-31T02:08:48.744Z,2.40
2023-08-31T02:11:24.049Z,3.00
2023-08-31T02:13:58.134Z,7.60
2023-08-31T02:16:30.613Z,5.70
2023-08-31T02:19:03.105Z,2.90
2023-08-31T02:21:35.826Z,3.10
2023-08-31T02:24:10.753Z,6.00
2023-08-31T02:26:47.202Z,3.40
2023-08-31T02:29:20.414Z,4.80
2023-08-31T02:31:52.837Z,1.50
2023-08-31T02:34:25.555Z,1.90
2023-08-31T02:36:58.417Z,2.00
2023-08-31T02:39:30.887Z,1.70
2023-08-31T02:42:03.432Z,5.70
2023-08-31T02:44:36.012Z,4.70
2023-08-31T02:47:08.652Z,1.40
2023-08-31T02:49:41.323Z,1.00
2023-08-31T02:52:13.893Z,4.10
2023-08-31T02:54:46.535Z,2.50
2023-08-31T02:57:21.066Z,4.40
2023-08-31T02:59:57.314Z,3.10
2023-08-31T03:02:30.042Z,1.50
2023-08-31T03:05:03.050Z,3.20
2023-08-31T03:07:35.972Z,1.60
2023-08-31T03:10:10.154Z,2.10
2023-08-31T03:12:42.588Z,0.40
2023-08-31T03:15:15.170Z,0.80
2023-08-31T03:17:47.961Z,0.80
2023-08-31T03:20:21.912Z,0.60
2023-08-31T03:22:55.012Z,1.80
2023-08-31T03:25:29.656Z,0.60
2023-08-31T03:30:33.284Z,0.70
2023-08-31T03:33:06.980Z,2.80
2023-08-31T03:35:39.752Z,3.40
2023-08-31T03:38:12.231Z,0.80
2023-08-31T03:40:45.525Z,1.40
2023-08-31T03:43:17.985Z,1.40
2023-08-31T03:45:51.831Z,2.10
2023-08-31T03:48:24.920Z,1.30
2023-08-31T03:50:58.507Z,2.60
2023-08-31T03:53:30.965Z,1.30
2023-08-31T03:56:05.853Z,1.90
2023-08-31T03:58:38.792Z,1.70
2023-08-31T04:01:12.007Z,2.40
2023-08-31T04:03:45.757Z,2.80
2023-08-31T04:06:19.174Z,2.30
2023-08-31T04:08:52.581Z,2.20
2023-08-31T04:11:27.307Z,2.10
2023-08-31T04:14:00.040Z,2.30
2023-08-31T04:16:34.366Z,2.70
2023-08-31T04:19:07.159Z,2.50
2023-08-31T04:21:39.934Z,3.50
2023-08-31T04:24:12.747Z,7.50
2023-08-31T04:26:49.257Z,3.50
2023-08-31T04:29:21.833Z,4.40
2023-08-31T04:31:55.046Z,3.70
2023-08-31T04:34:28.291Z,4.10
2023-08-31T04:37:00.800Z,3.60
2023-08-31T04:39:33.213Z,3.20
2023-08-31T04:42:06.396Z,9.80
2023-08-31T04:44:39.540Z,15.60
2023-08-31T04:47:12.882Z,10.20
2023-08-31T04:49:45.608Z,7.70
2023-08-31T04:52:18.316Z,4.40
2023-08-31T04:54:50.647Z,4.10
2023-08-31T04:57:23.146Z,3.20
2023-08-31T04:59:55.736Z,4.10
2023-08-31T05:02:28.270Z,4.50
2023-08-31T05:05:00.918Z,4.40
2023-08-31T05:07:33.616Z,2.80
2023-08-31T05:10:06.666Z,3.60
2023-08-31T05:12:39.654Z,4.50
2023-08-31T05:15:13.951Z,2.90
2023-08-31T05:17:46.408Z,3.80
2023-08-31T05:20:19.096Z,3.60
2023-08-31T05:22:51.547Z,3.70
2023-08-31T05:25:24.604Z,2.70
2023-08-31T05:27:58.894Z,3.20
2023-08-31T05:30:31.309Z,3.70
2023-08-31T05:33:04.786Z,4.00
2023-08-31T05:35:39.933Z,70.40
2023-08-31T05:38:13.543Z,10.70
2023-08-31T05:40:47.400Z,6.40
2023-08-31T05:43:20.327Z,5.40
2023-08-31T05:45:53.061Z,4.40
2023-08-31T05:48:25.754Z,3.60
2023-08-31T05:50:58.830Z,3.70
2023-08-31T05:53:31.196Z,3.70
2023-08-31T05:56:06.172Z,3.50
2023-08-31T05:58:40.168Z,4.30
2023-08-31T06:01:12.602Z,4.00
2023-08-31T06:03:45.044Z,4.50
2023-08-31T06:06:17.994Z,4.80
2023-08-31T06:08:50.434Z,6.10
2023-08-31T06:11:23.442Z,18.80
2023-08-31T06:13:56.081Z,26.50
2023-08-31T06:16:29.523Z,31.70
2023-08-31T06:19:02.250Z,11.80
2023-08-31T06:21:34.985Z,11.10
2023-08-31T06:24:11.243Z,7.90
2023-08-31T06:26:43.828Z,13.30
2023-08-31T06:29:16.621Z,23.20
2023-08-31T06:31:49.046Z,17.00
2023-08-31T06:34:21.541Z,4.90
2023-08-31T06:36:54.354Z,12.20
2023-08-31T06:39:27.181Z,6.30
2023-08-31T06:41:59.932Z,4.60
2023-08-31T06:44:35.849Z,12.00
2023-08-31T06:47:08.434Z,5.30
2023-08-31T06:49:41.154Z,4.00
2023-08-31T06:52:29.461Z,6.40
2023-08-31T06:55:04.424Z,5.90
2023-08-31T06:57:38.090Z,5.70
2023-08-31T07:00:13.441Z,3.90
2023-08-31T07:02:46.419Z,6.60
2023-08-31T07:05:24.290Z,4.80
2023-08-31T07:07:57.691Z,4.80
2023-08-31T07:10:30.780Z,6.10
2023-08-31T07:13:03.377Z,4.70
2023-08-31T07:15:36.167Z,4.90
2023-08-31T07:18:08.858Z,5.20
2023-08-31T07:20:41.694Z,4.50
2023-08-31T07:23:15.191Z,4.50
2023-08-31T07:25:48.180Z,4.10
2023-08-31T07:28:20.661Z,7.20
2023-08-31T07:31:02.389Z,4.40
2023-08-31T07:33:36.399Z,4.20
2023-08-31T07:36:09.795Z,6.40
2023-08-31T07:38:42.235Z,3.40
2023-08-31T07:41:14.960Z,3.00
2023-08-31T07:44:02.650Z,2.90
2023-08-31T07:46:37.264Z,3.40
2023-08-31T07:49:10.018Z,3.70
2023-08-31T07:51:42.501Z,2.60
2023-08-31T07:54:20.928Z,3.70
2023-08-31T07:56:53.436Z,2.90
2023-08-31T07:59:26.524Z,2.40
2023-08-31T08:01:59.061Z,3.10
2023-08-31T08:04:32.380Z,3.30
2023-08-31T08:07:05.212Z,23.30
2023-08-31T08:09:38.040Z,5.70
2023-08-31T08:12:12.535Z,2.70
2023-08-31T08:14:45.095Z,2.30
2023-08-31T08:17:17.558Z,3.10
2023-08-31T08:19:50.221Z,8.20
2023-08-31T08:22:22.577Z,4.60
2023-08-31T08:24:55.177Z,4.70
2023-08-31T08:27:27.913Z,6.80
2023-08-31T08:30:00.387Z,5.20
2023-08-31T08:32:35.171Z,5.60
2023-08-31T08:35:08.970Z,3.20
2023-08-31T08:37:41.697Z,8.60
2023-08-31T08:40:14.449Z,4.80
2023-08-31T08:42:49.594Z,7.30
2023-08-31T08:45:25.656Z,14.20
2023-08-31T08:47:59.977Z,20.90
2023-08-31T08:50:35.222Z,18.10
2023-08-31T08:53:08.554Z,37.60
2023-08-31T08:55:42.987Z,17.30
2023-08-31T08:58:15.403Z,6.70
2023-08-31T09:00:48.843Z,16.10
2023-08-31T09:03:21.225Z,10.30
2023-08-31T09:05:53.824Z,6.80
2023-08-31T09:08:31.793Z,11.60
2023-08-31T09:11:04.407Z,8.50
2023-08-31T09:13:36.834Z,8.30
2023-08-31T09:16:09.316Z,3.10
2023-08-31T09:18:41.816Z,6.80
2023-08-31T09:21:15.288Z,10.90
2023-08-31T09:23:58.353Z,5.30
2023-08-31T09:26:30.808Z,2.50
2023-08-31T09:29:03.764Z,3.70
2023-08-31T09:31:36.197Z,4.20
2023-08-31T09:34:08.904Z,4.20
2023-08-31T09:36:41.899Z,4.80
2023-08-31T09:39:15.256Z,2.50
2023-08-31T09:41:58.098Z,4.00
2023-08-31T09:44:30.608Z,2.70
2023-08-31T09:47:04.701Z,3.40
2023-08-31T09:49:39.156Z,5.70
2023-08-31T09:52:13.674Z,4.70
2023-08-31T09:57:22.616Z,3.20
2023-08-31T10:00:03.680Z,9.80
2023-08-31T10:02:38.990Z,5.00
2023-08-31T10:05:14.017Z,3.70
2023-08-31T10:07:47.940Z,7.10
2023-08-31T10:10:21.756Z,6.20
2023-08-31T10:12:55.506Z,11.00
2023-08-31T10:15:34.358Z,7.10
2023-08-31T10:18:08.692Z,8.00
2023-08-31T10:23:17.186Z,4.30
2023-08-31T10:26:06.744Z,3.60
2023-08-31T10:28:46.576Z,3.30
2023-08-31T10:31:21.715Z,4.00
2023-08-31T10:34:01.562Z,3.90
2023-08-31T10:36:41.642Z,3.40
2023-08-31T10:39:18.569Z,5.10
2023-08-31T10:41:58.309Z,4.60
2023-08-31T10:44:33.271Z,3.80
2023-08-31T10:47:07.784Z,2.90
2023-08-31T10:49:40.220Z,3.50
2023-08-31T10:52:36.868Z,4.70
2023-08-31T10:55:14.496Z,3.80
2023-08-31T10:57:47.026Z,6.70
2023-08-31T11:00:54.779Z,3.70
2023-08-31T11:03:27.262Z,4.90
2023-08-31T11:06:00.960Z,7.90
2023-08-31T11:08:33.400Z,7.30
2023-08-31T11:11:06.291Z,4.00
2023-08-31T11:13:39.371Z,4.00
2023-08-31T11:16:11.825Z,4.60
2023-08-31T11:18:44.282Z,4.10
2023-08-31T11:21:17.744Z,3.90
2023-08-31T11:23:51.317Z,4.80
2023-08-31T11:26:23.803Z,6.30
2023-08-31T11:28:57.944Z,9.30
2023-08-31T11:31:31.023Z,5.70
2023-08-31T11:34:03.484Z,7.00
2023-08-31T11:36:36.898Z,6.60
2023-08-31T11:39:10.945Z,6.60
2023-08-31T11:41:44.454Z,4.10
2023-08-31T11:44:18.117Z,6.70
2023-08-31T11:46:51.964Z,5.90
2023-08-31T11:49:25.008Z,13.30
2023-08-31T11:51:58.338Z,10.70
2023-08-31T11:54:31.337Z,4.00
2023-08-31T11:57:04.808Z,3.90
2023-08-31T11:59:38.688Z,5.60
2023-08-31T12:02:11.803Z,8.60
2023-08-31T12:04:47.694Z,5.70
2023-08-31T12:07:21.774Z,6.40
2023-08-31T12:09:54.211Z,7.10
2023-08-31T12:12:27.773Z,6.70
2023-08-31T12:15:04.986Z,7.00
2023-08-31T12:17:41.287Z,7.10
2023-08-31T12:20:15.868Z,6.60
2023-08-31T12:25:25.534Z,5.40
2023-08-31T12:27:58.569Z,5.80
2023-08-31T12:30:30.934Z,6.10
2023-08-31T12:33:03.440Z,6.00
2023-08-31T12:35:35.920Z,4.80
2023-08-31T12:38:08.407Z,4.60
2023-08-31T12:40:41.187Z,4.50
2023-08-31T12:43:14.255Z,4.60
2023-08-31T12:45:47.104Z,4.00
2023-08-31T12:48:19.588Z,5.30
2023-08-31T12:50:51.971Z,3.60
2023-08-31T12:53:24.865Z,6.20
2023-08-31T12:55:57.776Z,5.50
2023-08-31T12:58:30.172Z,6.10
2023-08-31T13:01:03.490Z,6.40
2023-08-31T13:03:35.979Z,4.80
2023-08-31T13:06:08.886Z,5.00
2023-08-31T13:08:41.707Z,5.80
2023-08-31T13:11:14.924Z,5.60
2023-08-31T13:13:47.272Z,7.30
2023-08-31T13:16:20.284Z,6.20
2023-08-31T13:18:53.418Z,4.20
2023-08-31T13:21:26.536Z,4.70
2023-08-31T13:23:59.249Z,4.50
2023-08-31T13:26:31.698Z,4.40
2023-08-31T13:29:05.956Z,4.30
2023-08-31T13:31:38.962Z,4.10
2023-08-31T13:34:11.708Z,3.50
2023-08-31T13:36:44.107Z,5.00
2023-08-31T13:39:17.580Z,4.70
2023-08-31T13:41:49.979Z,14.40
2023-08-31T13:44:23.632Z,21.10
2023-08-31T13:46:56.099Z,6.50
2023-08-31T13:49:28.481Z,9.40
2023-08-31T13:52:01.221Z,5.40
2023-08-31T13:54:33.997Z,5.80
2023-08-31T13:57:06.877Z,5.40
2023-08-31T13:59:39.270Z,4.40
2023-08-31T14:02:12.057Z,4.90
2023-08-31T14:04:45.257Z,5.70
2023-08-31T14:07:18.119Z,8.80
2023-08-31T14:09:51.798Z,8.20
2023-08-31T14:12:25.833Z,5.90
2023-08-31T14:14:58.916Z,7.70
2023-08-31T14:17:31.279Z,6.90
2023-08-31T14:20:08.980Z,5.80
2023-08-31T14:22:44.214Z,6.40
2023-08-31T14:25:17.269Z,4.50
2023-08-31T14:27:50.628Z,4.30
2023-08-31T14:30:23.306Z,6.90
2023-08-31T14:32:55.950Z,4.80
2023-08-31T14:35:29.571Z,5.10
2023-08-31T14:38:01.984Z,5.20
2023-08-31T14:40:35.456Z,5.50
2023-08-31T14:43:08.807Z,4.30
2023-08-31T14:45:42.505Z,4.20
2023-08-31T14:48:15.131Z,4.20
2023-08-31T14:50:47.892Z,4.80
2023-08-31T14:53:20.652Z,6.60
2023-08-31T14:55:53.930Z,5.80
2023-08-31T14:58:26.309Z,11.40
2023-08-31T15:01:00.807Z,5.60
2023-08-31T15:06:04.537Z,5.50
2023-08-31T15:08:42.100Z,5.60
2023-08-31T15:11:16.334Z,4.60
2023-08-31T15:13:48.926Z,4.40
2023-08-31T15:16:21.563Z,3.90
2023-08-31T15:18:54.236Z,3.90
2023-08-31T15:21:26.855Z,3.20
2023-08-31T15:23:59.298Z,3.20
2023-08-31T15:26:31.781Z,3.20
2023-08-31T15:29:05.319Z,3.20
2023-08-31T15:31:37.829Z,2.50
2023-08-31T15:34:11.666Z,2.70
2023-08-31T15:36:44.149Z,3.40
2023-08-31T15:39:16.636Z,2.70
2023-08-31T15:41:49.317Z,2.90
2023-08-31T15:44:22.058Z,2.60
2023-08-31T15:46:55.006Z,2.10
2023-08-31T15:49:27.758Z,2.50
2023-08-31T15:52:00.966Z,3.70
2023-08-31T15:54:33.774Z,3.50
2023-08-31T15:57:07.984Z,2.50
2023-08-31T15:59:41.105Z,2.30
2023-08-31T16:02:16.790Z,2.10
2023-08-31T16:04:49.764Z,2.00
2023-08-31T16:07:22.154Z,2.20
2023-08-31T16:09:55.309Z,3.30
2023-08-31T16:12:27.919Z,2.30
2023-08-31T16:15:00.626Z,54.60
2023-08-31T16:17:33.278Z,145.00
2023-08-31T16:20:06.548Z,68.90
2023-08-31T16:22:39.438Z,18.30
2023-08-31T16:25:14.060Z,3.90
2023-08-31T16:30:18.063Z,6.30
2023-08-31T16:32:50.471Z,7.70
2023-08-31T16:35:22.998Z,22.20
2023-08-31T16:37:55.400Z,16.00
2023-08-31T16:40:28.141Z,9.00
2023-08-31T16:43:00.601Z,8.90
2023-08-31T16:45:32.994Z,7.00
2023-08-31T16:48:06.188Z,9.60
2023-08-31T16:50:39.526Z,8.50
2023-08-31T16:53:11.880Z,13.30
2023-08-31T16:55:44.343Z,7.10
2023-08-31T16:58:17.290Z,5.80
2023-08-31T17:00:50.076Z,6.20
2023-08-31T17:03:22.536Z,6.40
2023-08-31T17:05:56.461Z,6.60
2023-08-31T17:08:28.782Z,5.50
2023-08-31T17:11:05.735Z,8.60
2023-08-31T17:13:38.160Z,7.70
2023-08-31T17:16:14.108Z,6.40
2023-08-31T17:18:46.608Z,8.20
2023-08-31T17:21:19.451Z,7.20
2023-08-31T17:23:52.679Z,9.60
2023-08-31T17:26:33.266Z,11.90
2023-08-31T17:29:09.140Z,6.70
2023-08-31T17:31:43.366Z,6.50
2023-08-31T17:34:20.838Z,5.90
2023-08-31T17:36:56.106Z,6.70
2023-08-31T17:39:37.116Z,9.80
2023-08-31T17:44:46.522Z,5.60
2023-08-31T17:47:20.791Z,4.70
2023-08-31T17:49:54.115Z,5.30
2023-08-31T17:52:26.995Z,8.00
2023-08-31T17:54:59.530Z,13.90
2023-08-31T17:57:33.322Z,12.90
2023-08-31T18:00:09.839Z,12.50
2023-08-31T18:02:43.938Z,11.40
2023-08-31T18:05:22.593Z,12.10
2023-08-31T18:08:05.295Z,7.50
2023-08-31T18:10:49.953Z,8.50
2023-08-31T18:13:28.625Z,6.80
2023-08-31T18:16:04.875Z,8.00
2023-08-31T18:18:46.289Z,17.80
2023-08-31T18:21:27.931Z,34.20
2023-08-31T18:24:04.279Z,67.80
2023-08-31T18:26:40.155Z,45.90
2023-08-31T18:29:14.363Z,19.90
2023-08-31T18:31:47.461Z,26.10
2023-08-31T18:34:20.518Z,30.80
2023-08-31T18:36:52.860Z,42.80
2023-08-31T18:39:26.584Z,22.20
2023-08-31T18:41:59.039Z,21.60
2023-08-31T18:44:31.595Z,12.90
2023-08-31T18:47:04.143Z,17.80
2023-08-31T18:49:36.633Z,14.70
2023-08-31T18:52:09.478Z,17.10
2023-08-31T18:54:42.164Z,20.40
2023-08-31T18:57:14.932Z,16.30
2023-08-31T18:59:48.016Z,21.30
2023-08-31T19:02:22.418Z,25.10
2023-08-31T19:04:55.681Z,19.70
2023-08-31T19:07:28.349Z,21.10
2023-08-31T19:10:08.219Z,13.50
2023-08-31T19:12:42.768Z,14.10
2023-08-31T19:15:15.320Z,15.00
2023-08-31T19:17:48.217Z,12.90
2023-08-31T19:20:20.989Z,11.60
2023-08-31T19:22:53.558Z,14.70
2023-08-31T19:25:30.545Z,14.30
2023-08-31T19:28:07.624Z,11.90
2023-08-31T19:30:40.186Z,12.30
2023-08-31T19:33:12.506Z,10.20
2023-08-31T19:35:58.789Z,13.60
2023-08-31T19:38:32.090Z,13.30
2023-08-31T19:41:04.929Z,16.10
2023-08-31T19:43:37.729Z,9.20
2023-08-31T19:46:14.278Z,7.60
2023-08-31T19:48:47.364Z,8.30
2023-08-31T19:51:19.754Z,12.80
2023-08-31T19:53:52.158Z,6.90
2023-08-31T19:56:24.625Z,5.30
2023-08-31T19:59:03.099Z,5.70
2023-08-31T20:01:36.140Z,7.20
2023-08-31T20:04:10.516Z,7.70
2023-08-31T20:06:42.913Z,10.90
2023-08-31T20:09:16.021Z,11.10
2023-08-31T20:11:48.382Z,10.20
2023-08-31T20:14:20.746Z,8.20
2023-08-31T20:16:53.495Z,6.10
2023-08-31T20:19:26.193Z,6.20
2023-08-31T20:22:00.510Z,6.50
2023-08-31T20:24:33.421Z,6.60
2023-08-31T20:27:06.897Z,7.50
2023-08-31T20:29:39.618Z,7.00
2023-08-31T20:32:11.987Z,6.70
2023-08-31T20:34:47.310Z,7.80
2023-08-31T20:37:20.361Z,6.30
2023-08-31T20:39:52.810Z,6.10
2023-08-31T20:42:25.683Z,6.20
2023-08-31T20:44:59.270Z,5.70
2023-08-31T20:47:31.954Z,6.00
2023-08-31T20:50:05.777Z,6.80
2023-08-31T20:52:38.131Z,6.70
2023-08-31T20:55:11.778Z,6.30
2023-08-31T20:57:44.578Z,5.90
2023-08-31T21:00:17.692Z,6.00
2023-08-31T21:02:51.162Z,6.20
2023-08-31T21:05:24.248Z,6.10
2023-08-31T21:07:57.029Z,6.70
2023-08-31T21:10:29.681Z,7.30
2023-08-31T21:13:02.800Z,5.80
2023-08-31T21:15:36.490Z,6.50
2023-08-31T21:18:10.684Z,7.20
2023-08-31T21:20:43.046Z,5.80
2023-08-31T21:23:15.652Z,6.60
2023-08-31T21:25:48.576Z,8.10
2023-08-31T21:28:21.547Z,7.50
2023-08-31T21:30:54.815Z,6.10
2023-08-31T21:33:27.255Z,7.30
2023-08-31T21:36:01.311Z,7.00
2023-08-31T21:38:33.794Z,7.20
2023-08-31T21:41:07.302Z,7.10
2023-08-31T21:43:39.956Z,9.00
2023-08-31T21:46:12.411Z,7.00
2023-08-31T21:48:46.727Z,6.90
2023-08-31T21:51:19.037Z,7.30
2023-08-31T21:53:51.730Z,6.70
2023-08-31T21:56:24.620Z,5.90
2023-08-31T21:58:56.907Z,6.10
2023-08-31T22:01:29.298Z,8.10
2023-08-31T22:04:02.536Z,6.60
2023-08-31T22:06:35.381Z,5.30
2023-08-31T22:09:08.211Z,5.40
2023-08-31T22:11:40.522Z,4.80
2023-08-31T22:14:13.817Z,4.90
2023-08-31T22:16:46.569Z,5.00
2023-08-31T22:19:19.027Z,4.70
2023-08-31T22:21:51.661Z,5.60
2023-08-31T22:24:24.473Z,5.40
2023-08-31T22:26:56.959Z,5.00
2023-08-31T22:29:29.330Z,6.00
2023-08-31T22:32:01.874Z,5.50
2023-08-31T22:34:34.350Z,5.20
2023-08-31T22:37:07.050Z,6.10
2023-08-31T22:39:40.136Z,6.20
2023-08-31T22:42:13.404Z,5.90
2023-08-31T22:44:46.030Z,6.80
2023-08-31T22:47:19.107Z,6.40
2023-08-31T22:49:53.707Z,15.00
2023-08-31T22:52:26.773Z,7.20
2023-08-31T22:54:59.686Z,6.20
2023-08-31T22:57:32.996Z,5.50
2023-08-31T23:00:08.067Z,5.40
2023-08-31T23:02:40.888Z,6.60
2023-08-31T23:05:13.484Z,4.90
2023-08-31T23:07:46.259Z,7.40
2023-08-31T23:10:26.917Z,5.40
2023-08-31T23:13:04.611Z,6.20
2023-08-31T23:15:39.994Z,5.60
2023-08-31T23:18:13.484Z,5.90
2023-08-31T23:20:46.574Z,14.00
2023-08-31T23:23:19.670Z,6.30
2023-08-31T23:25:52.339Z,7.30
2023-08-31T23:28:24.876Z,5.90
2023-08-31T23:30:57.312Z,6.40
2023-08-31T23:33:29.915Z,5.80
2023-08-31T23:36:02.875Z,7.00
2023-08-31T23:38:35.338Z,6.00
2023-08-31T23:41:07.962Z,7.80
2023-08-31T23:43:40.944Z,7.10
2023-08-31T23:46:13.425Z,5.60
2023-08-31T23:48:46.053Z,6.00
2023-08-31T23:51:18.373Z,5.40
2023-08-31T23:53:50.814Z,5.90
2023-08-31T23:56:24.204Z,6.00
2023-08-31T23:58:57.174Z,6.00
